La Leonesa, Argentina
Current Conditions -  °F | °C
As of 9:00 PM on Sunday 25 Jan 2015 (Local Time) from SARC Reporting Station
Clear Clear  
Wind Chill: 84°   Ceiling: Unl
Heat Index: 92°   Visibility: 5mi
Dew Point: 75°   Wind: 5mph
Humidity: 74%   Direction: 50°NE
Pressure: 29.77"   Gusts: NA
Location:  27.05°S, 58.7°W
Report Text: SARC 260000Z 05004KT 360V090 8000 NSC29/24 Q1008
Loading
Personal Weather Stations






























Interactive Weather Map New forecast layout! Learn more

10-Day Weather Forecast

Advertisements
Track Severe Weather on mobile